sensor_id;sensor_type;location;lat;lon;timestamp;pressure;altitude;pressure_sealevel;temperature;humidity
15263;BME280;7733;51.554;13.590;2023-02-23T00:01:59;100252.28;;;8.75;100.00
15263;BME280;7733;51.554;13.590;2023-02-23T00:04:30;100250.69;;;8.59;100.00
15263;BME280;7733;51.554;13.590;2023-02-23T00:06:56;100250.59;;;8.69;100.00
15263;BME280;7733;51.554;13.590;2023-02-23T00:09:22;100241.97;;;8.61;100.00
15263;BME280;7733;51.554;13.590;2023-02-23T00:11:56;100241.09;;;8.59;100.00
15263;BME280;7733;51.554;13.590;2023-02-23T00:14:27;100238.53;;;8.54;100.00
15263;BME280;7733;51.554;13.590;2023-02-23T00:16:56;100241.19;;;8.48;100.00
15263;BME280;7733;51.554;13.590;2023-02-23T00:19:23;100244.72;;;8.46;100.00
15263;BME280;7733;51.554;13.590;2023-02-23T00:21:49;100236.75;;;8.57;100.00
15263;BME280;7733;51.554;13.590;2023-02-23T00:24:16;100242.97;;;8.45;100.00
15263;BME280;7733;51.554;13.590;2023-02-23T00:26:47;100244.72;;;8.43;100.00
15263;BME280;7733;51.554;13.590;2023-02-23T00:29:20;100236.91;;;8.37;100.00
15263;BME280;7733;51.554;13.590;2023-02-23T00:31:48;100239.56;;;8.28;100.00
15263;BME280;7733;51.554;13.590;2023-02-23T00:34:17;100236.09;;;8.29;100.00
15263;BME280;7733;51.554;13.590;2023-02-23T00:36:51;100237.78;;;8.37;100.00
15263;BME280;7733;51.554;13.590;2023-02-23T00:39:18;100234.41;;;8.21;100.00
15263;BME280;7733;51.554;13.590;2023-02-23T00:41:50;100237.78;;;8.39;100.00
15263;BME280;7733;51.554;13.590;2023-02-23T00:44:18;100234.28;;;8.40;100.00
15263;BME280;7733;51.554;13.590;2023-02-23T00:46:45;100238.69;;;8.30;100.00
15263;BME280;7733;51.554;13.590;2023-02-23T00:49:13;100240.38;;;8.39;100.00
15263;BME280;7733;51.554;13.590;2023-02-23T00:51:40;100238.75;;;8.22;100.00
15263;BME280;7733;51.554;13.590;2023-02-23T00:54:07;100239.56;;;8.34;100.00
15263;BME280;7733;51.554;13.590;2023-02-23T00:56:33;100246.53;;;8.35;100.00
15263;BME280;7733;51.554;13.590;2023-02-23T00:58:59;100246.50;;;8.38;100.00
15263;BME280;7733;51.554;13.590;2023-02-23T01:01:25;100241.34;;;8.26;100.00
15263;BME280;7733;51.554;13.590;2023-02-23T01:03:51;100244.00;;;8.21;100.00
15263;BME280;7733;51.554;13.590;2023-02-23T01:06:21;100241.38;;;8.16;100.00
15263;BME280;7733;51.554;13.590;2023-02-23T01:08:49;100237.00;;;8.23;100.00
15263;BME280;7733;51.554;13.590;2023-02-23T01:11:25;100237.00;;;8.20;100.00
15263;BME280;7733;51.554;13.590;2023-02-23T01:13:58;100239.59;;;8.24;100.00
15263;BME280;7733;51.554;13.590;2023-02-23T01:16:29;100237.84;;;8.27;100.00
15263;BME280;7733;51.554;13.590;2023-02-23T01:18:58;100236.16;;;8.16;100.00
15263;BME280;7733;51.554;13.590;2023-02-23T01:21:29;100237.00;;;8.18;100.00
15263;BME280;7733;51.554;13.590;2023-02-23T01:23:55;100242.16;;;8.35;100.00
15263;BME280;7733;51.554;13.590;2023-02-23T01:26:25;100230.91;;;8.22;99.86
15263;BME280;7733;51.554;13.590;2023-02-23T01:29:00;100234.31;;;8.31;100.00
15263;BME280;7733;51.554;13.590;2023-02-23T01:31:28;100227.56;;;8.02;100.00
15263;BME280;7733;51.554;13.590;2023-02-23T01:34:00;100236.28;;;8.01;100.00
15263;BME280;7733;51.554;13.590;2023-02-23T01:36:27;100233.84;;;7.69;100.00
15263;BME280;7733;51.554;13.590;2023-02-23T01:38:54;100230.16;;;7.99;100.00
15263;BME280;7733;51.554;13.590;2023-02-23T01:41:26;100224.88;;;8.11;100.00
15263;BME280;7733;51.554;13.590;2023-02-23T01:44:06;100223.13;;;8.12;100.00
15263;BME280;7733;51.554;13.590;2023-02-23T01:46:35;100227.50;;;8.11;100.00
15263;BME280;7733;51.554;13.590;2023-02-23T01:49:05;100229.38;;;7.89;100.00
15263;BME280;7733;51.554;13.590;2023-02-23T01:52:08;100224.16;;;7.88;100.00
15263;BME280;7733;51.554;13.590;2023-02-23T01:54:45;100217.16;;;7.91;100.00
15263;BME280;7733;51.554;13.590;2023-02-23T01:57:15;100218.91;;;7.91;100.00
15263;BME280;7733;51.554;13.590;2023-02-23T01:59:46;100216.25;;;8.03;100.00
15263;BME280;7733;51.554;13.590;2023-02-23T02:02:16;100211.91;;;7.96;100.00
15263;BME280;7733;51.554;13.590;2023-02-23T02:04:43;100218.88;;;7.97;100.00
15263;BME280;7733;51.554;13.590;2023-02-23T02:07:21;100211.09;;;7.91;100.00
15263;BME280;7733;51.554;13.590;2023-02-23T02:09:54;100209.34;;;7.88;100.00
15263;BME280;7733;51.554;13.590;2023-02-23T02:12:46;100214.63;;;7.79;100.00
15263;BME280;7733;51.554;13.590;2023-02-23T02:15:16;100212.03;;;7.78;100.00
15263;BME280;7733;51.554;13.590;2023-02-23T02:17:58;100210.31;;;7.74;100.00
15263;BME280;7733;51.554;13.590;2023-02-23T02:21:07;100198.16;;;7.71;100.00
15263;BME280;7733;51.554;13.590;2023-02-23T02:33:35;100193.91;;;7.47;100.00
15263;BME280;7733;51.554;13.590;2023-02-23T02:39:25;100188.63;;;7.58;100.00
15263;BME280;7733;51.554;13.590;2023-02-23T02:42:19;100186.84;;;7.69;100.00
15263;BME280;7733;51.554;13.590;2023-02-23T02:48:39;100185.19;;;7.54;100.00
15263;BME280;7733;51.554;13.590;2023-02-23T02:54:02;100182.53;;;7.63;100.00
15263;BME280;7733;51.554;13.590;2023-02-23T02:56:39;100175.56;;;7.62;100.00
15263;BME280;7733;51.554;13.590;2023-02-23T02:59:16;100175.50;;;7.75;100.00
15263;BME280;7733;51.554;13.590;2023-02-23T03:02:04;100177.31;;;7.57;100.00
15263;BME280;7733;51.554;13.590;2023-02-23T03:04:48;100170.31;;;7.70;100.00
15263;BME280;7733;51.554;13.590;2023-02-23T03:07:52;100166.91;;;7.56;100.00
15263;BME280;7733;51.554;13.590;2023-02-23T03:10:58;100167.75;;;7.61;100.00
15263;BME280;7733;51.554;13.590;2023-02-23T03:13:55;100163.41;;;7.58;100.00
15263;BME280;7733;51.554;13.590;2023-02-23T03:20:23;100163.44;;;7.52;100.00
15263;BME280;7733;51.554;13.590;2023-02-23T03:26:54;100153.84;;;7.54;100.00
15263;BME280;7733;51.554;13.590;2023-02-23T03:29:54;100148.69;;;7.47;100.00
15263;BME280;7733;51.554;13.590;2023-02-23T03:32:53;100161.66;;;7.57;100.00
15263;BME280;7733;51.554;13.590;2023-02-23T03:35:56;100155.56;;;7.63;100.00
15263;BME280;7733;51.554;13.590;2023-02-23T03:39:20;100152.81;;;7.83;100.00
15263;BME280;7733;51.554;13.590;2023-02-23T03:42:14;100152.88;;;7.74;100.00
15263;BME280;7733;51.554;13.590;2023-02-23T03:45:10;100149.41;;;7.73;100.00
15263;BME280;7733;51.554;13.590;2023-02-23T03:47:58;100151.16;;;7.71;100.00
15263;BME280;7733;51.554;13.590;2023-02-23T03:50:52;100156.44;;;7.57;100.00
15263;BME280;7733;51.554;13.590;2023-02-23T03:54:09;100147.75;;;7.57;100.00
15263;BME280;7733;51.554;13.590;2023-02-23T03:57:00;100151.34;;;7.33;100.00
15263;BME280;7733;51.554;13.590;2023-02-23T04:02:23;100155.88;;;6.87;100.00
15263;BME280;7733;51.554;13.590;2023-02-23T04:05:16;100154.00;;;7.19;100.00
15263;BME280;7733;51.554;13.590;2023-02-23T04:08:05;100160.06;;;7.32;100.00
15263;BME280;7733;51.554;13.590;2023-02-23T04:11:04;100156.41;;;7.60;100.00
15263;BME280;7733;51.554;13.590;2023-02-23T04:13:57;100152.03;;;7.69;100.00
15263;BME280;7733;51.554;13.590;2023-02-23T04:16:27;100149.38;;;7.76;100.00
15263;BME280;7733;51.554;13.590;2023-02-23T04:18:54;100149.38;;;7.81;100.00
15263;BME280;7733;51.554;13.590;2023-02-23T04:21:20;100148.44;;;7.88;100.00
15263;BME280;7733;51.554;13.590;2023-02-23T04:23:46;100145.91;;;7.74;100.00
15263;BME280;7733;51.554;13.590;2023-02-23T04:26:12;100151.19;;;7.67;100.00
15263;BME280;7733;51.554;13.590;2023-02-23T04:28:38;100145.06;;;7.71;100.00
15263;BME280;7733;51.554;13.590;2023-02-23T04:31:03;100146.16;;;7.30;100.00
15263;BME280;7733;51.554;13.590;2023-02-23T04:33:29;100149.69;;;7.14;100.00
15263;BME280;7733;51.554;13.590;2023-02-23T04:35:55;100151.44;;;7.13;100.00
15263;BME280;7733;51.554;13.590;2023-02-23T04:38:22;100153.81;;;7.60;100.00
15263;BME280;7733;51.554;13.590;2023-02-23T04:40:48;100146.09;;;7.45;100.00
15263;BME280;7733;51.554;13.590;2023-02-23T04:43:15;100145.13;;;7.63;100.00
15263;BME280;7733;51.554;13.590;2023-02-23T04:45:41;100139.84;;;7.72;100.00
15263;BME280;7733;51.554;13.590;2023-02-23T04:48:07;100148.56;;;7.70;100.00
15263;BME280;7733;51.554;13.590;2023-02-23T04:50:33;100146.66;;;7.93;100.00
15263;BME280;7733;51.554;13.590;2023-02-23T04:52:59;100138.06;;;7.74;100.00
15263;BME280;7733;51.554;13.590;2023-02-23T04:55:25;100144.84;;;8.03;100.00
15263;BME280;7733;51.554;13.590;2023-02-23T04:57:56;100148.28;;;8.09;100.00
15263;BME280;7733;51.554;13.590;2023-02-23T05:00:24;100153.44;;;8.17;100.00
15263;BME280;7733;51.554;13.590;2023-02-23T05:02:49;100158.03;;;7.80;100.00
15263;BME280;7733;51.554;13.590;2023-02-23T05:05:16;100150.03;;;8.07;100.00
15263;BME280;7733;51.554;13.590;2023-02-23T05:07:41;100159.94;;;7.61;100.00
15263;BME280;7733;51.554;13.590;2023-02-23T05:10:08;100166.66;;;7.94;100.00
15263;BME280;7733;51.554;13.590;2023-02-23T05:12:34;100150.97;;;7.99;100.00
15263;BME280;7733;51.554;13.590;2023-02-23T05:15:00;100150.84;;;8.15;100.00
15263;BME280;7733;51.554;13.590;2023-02-23T05:17:26;100141.34;;;8.01;100.00
15263;BME280;7733;51.554;13.590;2023-02-23T05:19:52;100146.81;;;7.72;100.00
15263;BME280;7733;51.554;13.590;2023-02-23T05:22:18;100137.16;;;7.80;100.00
15263;BME280;7733;51.554;13.590;2023-02-23T05:24:43;100129.22;;;7.97;100.00
15263;BME280;7733;51.554;13.590;2023-02-23T05:27:10;100134.44;;;7.95;100.00
15263;BME280;7733;51.554;13.590;2023-02-23T05:29:36;100133.53;;;7.99;100.00
15263;BME280;7733;51.554;13.590;2023-02-23T05:32:01;100132.56;;;8.14;100.00
15263;BME280;7733;51.554;13.590;2023-02-23T05:34:27;100130.88;;;8.08;100.00
15263;BME280;7733;51.554;13.590;2023-02-23T05:36:53;100134.34;;;8.09;100.00
15263;BME280;7733;51.554;13.590;2023-02-23T05:39:20;100138.91;;;7.78;100.00
15263;BME280;7733;51.554;13.590;2023-02-23T05:41:46;100130.13;;;7.91;100.00
15263;BME280;7733;51.554;13.590;2023-02-23T05:44:12;100142.25;;;8.03;100.00
15263;BME280;7733;51.554;13.590;2023-02-23T05:46:38;100135.22;;;8.09;100.00
15263;BME280;7733;51.554;13.590;2023-02-23T05:49:04;100132.66;;;8.05;100.00
15263;BME280;7733;51.554;13.590;2023-02-23T05:51:32;100132.59;;;8.09;100.00
15263;BME280;7733;51.554;13.590;2023-02-23T05:53:58;100127.41;;;8.06;100.00
15263;BME280;7733;51.554;13.590;2023-02-23T05:56:24;100137.81;;;8.09;100.00
15263;BME280;7733;51.554;13.590;2023-02-23T05:58:54;100138.78;;;8.02;100.00
15263;BME280;7733;51.554;13.590;2023-02-23T06:01:21;100149.22;;;8.02;100.00
15263;BME280;7733;51.554;13.590;2023-02-23T06:03:47;100147.59;;;7.86;100.00
15263;BME280;7733;51.554;13.590;2023-02-23T06:06:14;100157.38;;;7.47;100.00
15263;BME280;7733;51.554;13.590;2023-02-23T06:08:40;100152.78;;;7.89;100.00
15263;BME280;7733;51.554;13.590;2023-02-23T06:11:07;100145.03;;;7.75;100.00
15263;BME280;7733;51.554;13.590;2023-02-23T06:13:33;100153.69;;;7.83;100.00
15263;BME280;7733;51.554;13.590;2023-02-23T06:16:00;100153.84;;;7.62;100.00
15263;BME280;7733;51.554;13.590;2023-02-23T06:18:27;100156.25;;;7.91;100.00
15263;BME280;7733;51.554;13.590;2023-02-23T06:20:53;100151.88;;;7.91;100.00
15263;BME280;7733;51.554;13.590;2023-02-23T06:23:19;100157.97;;;7.92;100.00
15263;BME280;7733;51.554;13.590;2023-02-23T06:25:46;100164.81;;;8.11;100.00
15263;BME280;7733;51.554;13.590;2023-02-23T06:28:13;100162.28;;;8.02;100.00
15263;BME280;7733;51.554;13.590;2023-02-23T06:30:39;100164.00;;;7.99;100.00
15263;BME280;7733;51.554;13.590;2023-02-23T06:33:06;100164.03;;;7.96;100.00
15263;BME280;7733;51.554;13.590;2023-02-23T06:35:33;100168.34;;;8.04;100.00
15263;BME280;7733;51.554;13.590;2023-02-23T06:38:00;100164.91;;;7.96;100.00
15263;BME280;7733;51.554;13.590;2023-02-23T06:40:26;100174.56;;;7.86;100.00
15263;BME280;7733;51.554;13.590;2023-02-23T06:42:53;100181.44;;;7.97;100.00
15263;BME280;7733;51.554;13.590;2023-02-23T06:45:18;100174.41;;;8.09;100.00
15263;BME280;7733;51.554;13.590;2023-02-23T06:47:45;100179.66;;;8.05;100.00
15263;BME280;7733;51.554;13.590;2023-02-23T06:50:12;100178.84;;;7.95;100.00
15263;BME280;7733;51.554;13.590;2023-02-23T06:52:38;100181.41;;;8.00;100.00
15263;BME280;7733;51.554;13.590;2023-02-23T06:55:05;100187.50;;;8.00;100.00
15263;BME280;7733;51.554;13.590;2023-02-23T06:57:31;100184.91;;;8.03;100.00
15263;BME280;7733;51.554;13.590;2023-02-23T06:59:57;100181.41;;;8.00;100.00
15263;BME280;7733;51.554;13.590;2023-02-23T07:02:23;100177.03;;;8.06;100.00
15263;BME280;7733;51.554;13.590;2023-02-23T07:04:48;100184.78;;;8.15;100.00
15263;BME280;7733;51.554;13.590;2023-02-23T07:07:14;100181.31;;;8.15;100.00
15263;BME280;7733;51.554;13.590;2023-02-23T07:09:40;100173.44;;;8.18;100.00
15263;BME280;7733;51.554;13.590;2023-02-23T07:12:09;100188.16;;;8.30;100.00
15263;BME280;7733;51.554;13.590;2023-02-23T07:14:35;100182.06;;;8.34;100.00
15263;BME280;7733;51.554;13.590;2023-02-23T07:17:03;100175.06;;;8.33;100.00
15263;BME280;7733;51.554;13.590;2023-02-23T07:19:30;100170.72;;;8.32;100.00
15263;BME280;7733;51.554;13.590;2023-02-23T07:21:56;100175.91;;;8.39;100.00
15263;BME280;7733;51.554;13.590;2023-02-23T07:24:22;100180.41;;;8.23;100.00
15263;BME280;7733;51.554;13.590;2023-02-23T07:26:48;100181.19;;;8.30;100.00
15263;BME280;7733;51.554;13.590;2023-02-23T07:29:14;100174.31;;;8.17;100.00
15263;BME280;7733;51.554;13.590;2023-02-23T07:31:40;100173.34;;;8.36;100.00
15263;BME280;7733;51.554;13.590;2023-02-23T07:34:08;100181.16;;;8.42;100.00
15263;BME280;7733;51.554;13.590;2023-02-23T07:36:34;100175.84;;;8.50;100.00
15263;BME280;7733;51.554;13.590;2023-02-23T07:39:00;100174.88;;;8.59;100.00
15263;BME280;7733;51.554;13.590;2023-02-23T07:41:26;100181.88;;;8.55;100.00
15263;BME280;7733;51.554;13.590;2023-02-23T07:43:52;100181.84;;;8.58;100.00
15263;BME280;7733;51.554;13.590;2023-02-23T07:46:17;100172.94;;;8.77;100.00
15263;BME280;7733;51.554;13.590;2023-02-23T07:48:43;100174.56;;;8.91;100.00
15263;BME280;7733;51.554;13.590;2023-02-23T07:51:11;100177.34;;;8.74;100.00
15263;BME280;7733;51.554;13.590;2023-02-23T07:53:39;100179.84;;;8.88;100.00
15263;BME280;7733;51.554;13.590;2023-02-23T07:56:06;100174.44;;;9.00;100.00
15263;BME280;7733;51.554;13.590;2023-02-23T07:58:35;100184.13;;;8.93;100.00
15263;BME280;7733;51.554;13.590;2023-02-23T08:01:00;100185.28;;;8.66;100.00
15263;BME280;7733;51.554;13.590;2023-02-23T08:03:26;100187.63;;;8.92;100.00
15263;BME280;7733;51.554;13.590;2023-02-23T08:05:52;100187.59;;;8.94;100.00
15263;BME280;7733;51.554;13.590;2023-02-23T08:08:18;100189.72;;;9.36;100.00
15263;BME280;7733;51.554;13.590;2023-02-23T08:10:43;100193.94;;;9.50;100.00
15263;BME280;7733;51.554;13.590;2023-02-23T08:13:09;100186.00;;;9.56;100.00
15263;BME280;7733;51.554;13.590;2023-02-23T08:15:35;100193.09;;;9.48;100.00
15263;BME280;7733;51.554;13.590;2023-02-23T08:18:01;100187.44;;;9.78;100.00
15263;BME280;7733;51.554;13.590;2023-02-23T08:20:26;100189.16;;;9.82;100.00
15263;BME280;7733;51.554;13.590;2023-02-23T08:22:54;100183.66;;;9.97;100.00
15263;BME280;7733;51.554;13.590;2023-02-23T08:25:20;100178.66;;;9.84;100.00
15263;BME280;7733;51.554;13.590;2023-02-23T08:27:47;100186.44;;;9.87;100.00
15263;BME280;7733;51.554;13.590;2023-02-23T08:30:14;100185.25;;;10.07;100.00
15263;BME280;7733;51.554;13.590;2023-02-23T08:32:40;100190.31;;;10.18;100.00
15263;BME280;7733;51.554;13.590;2023-02-23T08:35:06;100197.78;;;9.87;100.00
15263;BME280;7733;51.554;13.590;2023-02-23T08:37:32;100191.47;;;10.02;100.00
15263;BME280;7733;51.554;13.590;2023-02-23T08:39:58;100185.97;;;10.22;100.00
15263;BME280;7733;51.554;13.590;2023-02-23T08:42:26;100189.28;;;10.31;100.00
15263;BME280;7733;51.554;13.590;2023-02-23T08:44:51;100190.47;;;10.11;100.00
15263;BME280;7733;51.554;13.590;2023-02-23T08:47:18;100187.09;;;10.02;100.00
15263;BME280;7733;51.554;13.590;2023-02-23T08:49:49;100194.13;;;9.99;100.00
15263;BME280;7733;51.554;13.590;2023-02-23T08:52:16;100185.94;;;10.23;100.00
15263;BME280;7733;51.554;13.590;2023-02-23T08:54:41;100188.25;;;10.42;100.00
15263;BME280;7733;51.554;13.590;2023-02-23T08:57:07;100185.63;;;10.40;100.00
15263;BME280;7733;51.554;13.590;2023-02-23T08:59:33;100186.81;;;10.21;100.00
15263;BME280;7733;51.554;13.590;2023-02-23T09:01:58;100185.59;;;10.43;100.00
15263;BME280;7733;51.554;13.590;2023-02-23T09:04:24;100186.41;;;10.47;100.00
15263;BME280;7733;51.554;13.590;2023-02-23T09:06:50;100189.97;;;10.92;100.00
15263;BME280;7733;51.554;13.590;2023-02-23T09:09:16;100185.28;;;10.63;100.00
15263;BME280;7733;51.554;13.590;2023-02-23T09:11:42;100192.56;;;10.46;100.00
15263;BME280;7733;51.554;13.590;2023-02-23T09:14:08;100189.00;;;10.48;100.00
15263;BME280;7733;51.554;13.590;2023-02-23T09:16:35;100185.69;;;10.88;100.00
15263;BME280;7733;51.554;13.590;2023-02-23T09:19:02;100181.34;;;10.87;100.00
15263;BME280;7733;51.554;13.590;2023-02-23T09:21:28;100188.75;;;11.11;100.00
15263;BME280;7733;51.554;13.590;2023-02-23T09:23:55;100200.34;;;10.50;100.00
15263;BME280;7733;51.554;13.590;2023-02-23T09:26:23;100186.56;;;10.88;100.00
15263;BME280;7733;51.554;13.590;2023-02-23T09:28:49;100184.88;;;10.84;100.00
15263;BME280;7733;51.554;13.590;2023-02-23T09:31:22;100188.66;;;10.68;100.00
15263;BME280;7733;51.554;13.590;2023-02-23T09:33:48;100194.91;;;10.59;100.00
15263;BME280;7733;51.554;13.590;2023-02-23T09:36:21;100192.59;;;10.92;100.00
15263;BME280;7733;51.554;13.590;2023-02-23T09:38:51;100189.16;;;10.90;100.00
15263;BME280;7733;51.554;13.590;2023-02-23T09:44:50;100188.19;;;10.94;100.00
15263;BME280;7733;51.554;13.590;2023-02-23T09:47:39;100191.28;;;11.14;100.00
15263;BME280;7733;51.554;13.590;2023-02-23T09:50:22;100188.84;;;11.07;100.00
15263;BME280;7733;51.554;13.590;2023-02-23T09:53:02;100184.91;;;11.27;100.00
15263;BME280;7733;51.554;13.590;2023-02-23T09:55:30;100189.53;;;11.15;100.00
15263;BME280;7733;51.554;13.590;2023-02-23T09:58:18;100187.44;;;11.32;100.00
15263;BME280;7733;51.554;13.590;2023-02-23T10:01:16;100190.72;;;11.43;100.00
15263;BME280;7733;51.554;13.590;2023-02-23T10:04:04;100181.13;;;11.41;100.00
15263;BME280;7733;51.554;13.590;2023-02-23T10:06:33;100186.53;;;11.75;100.00
15263;BME280;7733;51.554;13.590;2023-02-23T10:11:48;100182.88;;;12.22;100.00
15263;BME280;7733;51.554;13.590;2023-02-23T10:20:58;100190.06;;;12.14;100.00
15263;BME280;7733;51.554;13.590;2023-02-23T10:23:50;100189.50;;;12.00;100.00
15263;BME280;7733;51.554;13.590;2023-02-23T10:26:25;100181.38;;;12.10;99.65
15263;BME280;7733;51.554;13.590;2023-02-23T10:28:56;100187.88;;;12.31;99.25
15263;BME280;7733;51.554;13.590;2023-02-23T10:31:41;100187.06;;;12.29;99.59
15263;BME280;7733;51.554;13.590;2023-02-23T10:34:14;100182.19;;;12.49;99.53
15263;BME280;7733;51.554;13.590;2023-02-23T10:36:59;100176.38;;;12.71;97.87
15263;BME280;7733;51.554;13.590;2023-02-23T10:39:29;100182.25;;;12.46;97.93
15263;BME280;7733;51.554;13.590;2023-02-23T10:42:02;100163.25;;;12.69;96.74
15263;BME280;7733;51.554;13.590;2023-02-23T10:44:30;100173.00;;;13.31;96.46
15263;BME280;7733;51.554;13.590;2023-02-23T10:47:02;100178.09;;;13.04;96.74
15263;BME280;7733;51.554;13.590;2023-02-23T10:49:47;100172.81;;;12.72;97.84
15263;BME280;7733;51.554;13.590;2023-02-23T10:54:57;100169.03;;;13.15;96.14
15263;BME280;7733;51.554;13.590;2023-02-23T10:57:30;100167.06;;;12.90;96.83
15263;BME280;7733;51.554;13.590;2023-02-23T11:02:45;100172.22;;;12.95;97.21
15263;BME280;7733;51.554;13.590;2023-02-23T11:05:45;100172.03;;;13.02;97.29
15263;BME280;7733;51.554;13.590;2023-02-23T11:08:24;100164.38;;;13.26;96.38
15263;BME280;7733;51.554;13.590;2023-02-23T11:13:48;100170.34;;;12.98;97.08
15263;BME280;7733;51.554;13.590;2023-02-23T11:16:21;100166.56;;;13.08;96.89
15263;BME280;7733;51.554;13.590;2023-02-23T11:19:20;100158.47;;;13.47;95.51
15263;BME280;7733;51.554;13.590;2023-02-23T11:21:51;100160.97;;;13.52;95.23
15263;BME280;7733;51.554;13.590;2023-02-23T11:24:31;100155.91;;;13.74;95.17
15263;BME280;7733;51.554;13.590;2023-02-23T11:27:01;100147.28;;;13.68;95.94
15263;BME280;7733;51.554;13.590;2023-02-23T11:29:41;100144.38;;;13.17;97.37
15263;BME280;7733;51.554;13.590;2023-02-23T11:32:16;100145.75;;;13.32;95.84
15263;BME280;7733;51.554;13.590;2023-02-23T11:34:45;100145.25;;;13.49;95.77
15263;BME280;7733;51.554;13.590;2023-02-23T11:39:53;100135.56;;;13.49;96.93
15263;BME280;7733;51.554;13.590;2023-02-23T11:42:31;100139.53;;;13.34;95.49
15263;BME280;7733;51.554;13.590;2023-02-23T11:45:14;100132.03;;;13.50;95.63
15263;BME280;7733;51.554;13.590;2023-02-23T11:47:47;100130.31;;;14.05;94.23
15263;BME280;7733;51.554;13.590;2023-02-23T11:50:33;100126.94;;;14.00;94.09
15263;BME280;7733;51.554;13.590;2023-02-23T11:53:05;100122.88;;;13.90;93.80
15263;BME280;7733;51.554;13.590;2023-02-23T11:55:33;100117.66;;;13.60;95.85
15263;BME280;7733;51.554;13.590;2023-02-23T11:58:37;100113.22;;;13.62;95.87
15263;BME280;7733;51.554;13.590;2023-02-23T12:01:10;100116.41;;;13.72;95.43
15263;BME280;7733;51.554;13.590;2023-02-23T12:04:07;100111.09;;;13.46;96.26
15263;BME280;7733;51.554;13.590;2023-02-23T12:06:38;100117.56;;;13.63;97.21
15263;BME280;7733;51.554;13.590;2023-02-23T12:09:25;100108.84;;;13.89;95.44
15263;BME280;7733;51.554;13.590;2023-02-23T12:12:03;100108.91;;;13.88;96.72
15263;BME280;7733;51.554;13.590;2023-02-23T12:14:47;100102.28;;;13.75;96.87
15263;BME280;7733;51.554;13.590;2023-02-23T12:17:45;100113.84;;;13.70;96.56
15263;BME280;7733;51.554;13.590;2023-02-23T12:20:36;100102.59;;;13.92;97.77
15263;BME280;7733;51.554;13.590;2023-02-23T12:23:11;100116.94;;;13.55;97.64
15263;BME280;7733;51.554;13.590;2023-02-23T12:26:00;100111.41;;;13.64;97.98
15263;BME280;7733;51.554;13.590;2023-02-23T12:28:39;100112.22;;;13.66;97.78
15263;BME280;7733;51.554;13.590;2023-02-23T12:31:22;100101.47;;;13.73;98.34
15263;BME280;7733;51.554;13.590;2023-02-23T12:34:01;100105.56;;;13.83;97.82
15263;BME280;7733;51.554;13.590;2023-02-23T12:36:52;100110.56;;;13.90;97.43
15263;BME280;7733;51.554;13.590;2023-02-23T12:39:31;100100.69;;;13.69;99.50
15263;BME280;7733;51.554;13.590;2023-02-23T12:42:34;100106.25;;;13.60;100.00
15263;BME280;7733;51.554;13.590;2023-02-23T12:45:20;100106.34;;;13.57;99.19
15263;BME280;7733;51.554;13.590;2023-02-23T12:51:09;100097.16;;;13.42;100.00
15263;BME280;7733;51.554;13.590;2023-02-23T12:53:42;100100.59;;;13.44;100.00
15263;BME280;7733;51.554;13.590;2023-02-23T13:02:46;100101.78;;;13.34;100.00
15263;BME280;7733;51.554;13.590;2023-02-23T13:05:22;100105.00;;;13.13;100.00
15263;BME280;7733;51.554;13.590;2023-02-23T13:08:34;100102.22;;;13.19;100.00
15263;BME280;7733;51.554;13.590;2023-02-23T13:11:26;100098.22;;;13.35;100.00
15263;BME280;7733;51.554;13.590;2023-02-23T13:17:03;100098.31;;;13.32;100.00
15263;BME280;7733;51.554;13.590;2023-02-23T13:19:47;100094.78;;;13.62;99.70
15263;BME280;7733;51.554;13.590;2023-02-23T13:22:48;100088.19;;;13.48;100.00
15263;BME280;7733;51.554;13.590;2023-02-23T13:27:58;100085.59;;;13.46;100.00
15263;BME280;7733;51.554;13.590;2023-02-23T13:30:29;100089.00;;;13.22;100.00
15263;BME280;7733;51.554;13.590;2023-02-23T13:33:13;100085.59;;;13.46;100.00
15263;BME280;7733;51.554;13.590;2023-02-23T13:35:41;100083.28;;;13.35;100.00
15263;BME280;7733;51.554;13.590;2023-02-23T13:38:49;100079.50;;;13.15;100.00
15263;BME280;7733;51.554;13.590;2023-02-23T13:41:38;100081.09;;;13.22;100.00
15263;BME280;7733;51.554;13.590;2023-02-23T13:49:41;100081.09;;;13.20;100.00
15263;BME280;7733;51.554;13.590;2023-02-23T13:52:38;100081.50;;;13.36;100.00
15263;BME280;7733;51.554;13.590;2023-02-23T13:57:55;100075.22;;;13.40;99.93
15263;BME280;7733;51.554;13.590;2023-02-23T14:00:28;100077.66;;;13.48;99.84
15263;BME280;7733;51.554;13.590;2023-02-23T14:02:54;100068.41;;;13.62;99.67
15263;BME280;7733;51.554;13.590;2023-02-23T14:05:24;100077.69;;;13.46;99.92
15263;BME280;7733;51.554;13.590;2023-02-23T14:08:30;100078.84;;;13.06;100.00
15263;BME280;7733;51.554;13.590;2023-02-23T14:10:58;100068.97;;;13.15;99.89
15263;BME280;7733;51.554;13.590;2023-02-23T14:13:28;100083.03;;;13.14;99.73
15263;BME280;7733;51.554;13.590;2023-02-23T14:16:16;100075.22;;;13.10;99.91
15263;BME280;7733;51.554;13.590;2023-02-23T14:19:11;100080.91;;;13.28;100.00
15263;BME280;7733;51.554;13.590;2023-02-23T14:21:50;100075.72;;;13.53;99.03
15263;BME280;7733;51.554;13.590;2023-02-23T14:24:26;100068.84;;;13.49;98.74
15263;BME280;7733;51.554;13.590;2023-02-23T14:27:10;100071.06;;;13.61;98.39
15263;BME280;7733;51.554;13.590;2023-02-23T14:30:12;100083.44;;;13.31;99.12
15263;BME280;7733;51.554;13.590;2023-02-23T14:32:46;100073.19;;;13.50;98.97
15263;BME280;7733;51.554;13.590;2023-02-23T14:38:10;100086.88;;;13.33;99.90
15263;BME280;7733;51.554;13.590;2023-02-23T14:40:42;100077.97;;;13.37;100.00
15263;BME280;7733;51.554;13.590;2023-02-23T14:46:03;100076.78;;;13.47;99.60